63562 station(s) have been heard in the last 24 hours.

<< 434 435 436 437 438 439 440 >>
  Name/Id Latest heard Comment/Other Map
Symbol TB4ZTE-10 1788418071 LightTracker PluS LoRa APRS iGate by TA2MUN & TA3YNS Map
Symbol SQ6OWM-B 1788418070 70cm Voice (D-Star) 433.50000MHz +0.0000MHz Map
Symbol YD0BCX-6 1788418070 Time: 2026-09-03 14:00:00, Temp: 32C, Desc: Sunny, WS: 13.1 m/s, Hum: 48 % Map
Symbol DC4FRT-10 1788418070 LoRa iGate with tranSmit function, https://www.qsl.net/dc4frt Map
Symbol IU8GWY-10 1788418070 LoRa-OE (LoRa-OE=124 ) http://mtg3.eu/GC/T/0/b Map
Symbol 9M2NZR-1 1788418070 SP LoRa Igate Sg Layar Hujong Map
Symbol DK3RW-14 1788418070 LoRa APRS iGate DK3RW Map
Symbol KC3DNB-D 1788418070 70cm MMDVM Voice (DMR) 446.55000MHz +0.0000MHz, APRS for DMRGateway Map
Symbol KG6TTN 1788418070 MHeard 60m: WA6IFI-6, N0AMY-3 Map
Symbol HS6KLJ-11 1788418070 Map
Symbol 443.275 1788418070 443.275MHz T100 +50000 KG4FZR. .www.mcminnarc.com Map
Symbol campgroun 1788418070 Map
Symbol M7ORT B 1788418070 70cm Voice (D-Star) 438.80000MHz +0.0000MHz Map
Symbol BG7OTB-R 1788418070 70cm MMDVM Voice (DMR) 438.80000MHz -8.0000MHz, APRS for DMRGateway Map
Symbol ON5KR-D 1788418070 70cm MMDVM Voice (DMR) 439.67500MHz -7.6000MHz, APRS for DMRGateway Map
Symbol VE6DZ 1788418070 SharkRF openSPOT4 Map
Symbol JF6JEU-9 1788418070 Map
Symbol W0JRT-3 1788418070 W3,MOn Map
Symbol N7RBP C 1788418070 2m Voice (D-Star) 146.55000MHz +0.0000MHz Map
Symbol SR2GG 1788418070 DIGI na Palukach_QTH-SZUBIN_144,800 Map
Symbol SA3MHZ-10 1788418070 Map
Symbol VK5GR-12 1788418070 AmbientCWOP.com Map
Symbol EA1ACP-10 1788418070 LoRa APRS Ocenilla Map
Symbol F5NKP-B 1788418070 440 Voice 439.00000MHz +0.0000MHz Map
Symbol LD9TU 1788418070 Ullsnes Ullsfjord W3 Map
Symbol FlyingJ 1788418070 Map
Symbol TA6AV-2 1788418070 CANKIRI LORA DIGIPEATER I-GATE ISTASYONU Map
Symbol K6VO-B 1788418070 440 Voice 449.4625 -5MHz Map
Symbol ELMWOD 1788418070 DX: KD8B-15 103.6mi 3 06:53 4618.90N 08533.75W Map
Symbol HB9EVJ-15 1788418070 LoRa Digipeater Ant:7,5dB JN36IM Alt.460m Map
Symbol 999-NS 1788418070 SZPITAL Nowy Sacz Map
Symbol IR4ZZC C 1788418070 2m Voice (D-Star) 145.65000MHz -0.6000MHz Map
Symbol SP6AB-D 1788418070 70cm MMDVM Voice (DMR) 438.82500MHz -7.6000MHz, APRS for DMRGateway Map
Symbol SP1AK-9 1788418069 op. Adam - contact 145.550 MHz Map
Symbol KF5JRV-15 1788418069 `kf5jrv@gmail.com Map
Symbol KA4RVT-C 1788418069 2m Voice 145.3300 -0.600 MHz Map
Symbol K0EGG-B 1788418069 70cm Voice (D-Star) 438.85000MHz +0.0000MHz Map
Symbol EA2RKS C 1788418069 2m Voice (D-Star) 145.57500MHz -0.6000MHz Map
Symbol KA4RVT-B 1788418069 440 Voice 444.5000 +5.00 MHz Map
Symbol PP5AU B 1788418069 70cm Voice (D-Star) 439.00000MHz +0.0000MHz Map
Symbol K4OBZ-D 1788418069 70cm MMDVM Voice (DMR) 446.52500MHz +0.0000MHz, APRS for DMRGateway Map
Symbol DB0HRF-B 1788418069 http://db0hrf.no-ip.org/ 440 Voice 439.450 -7.6 Map
Symbol ZS1OA-14 1788418069 SATS08 HDOP1.0 -68dBm MTN-SA Map
Symbol EL-BERTRA 1788418069 432.975MHz T079 R02m - WebLink v4 - Map
Symbol ON6OO-13 1788418069 .LDSWX1.00 Map
Symbol K8LGN-5 1788418069 K8LGN Logan Ohio HVARC Map
Symbol F8KIH-10 1788418069 ****LoRa_APRS_iGate Map
Symbol VU2EHY-D 1788418069 70cm MMDVM Voice (DMR) 439.00000MHz +0.0000MHz, APRS for DMRGateway Map
Symbol SV9TNF-55 1788418069 Map
Symbol IR5S 1788418069 144,825 MHz Packet 1200/9600 b Map